sensor_id;sensor_type;location;lat;lon;timestamp;P1;durP1;ratioP1;P2;durP2;ratioP2
75912;SDS011;64592;52.168;21.040;2023-05-10T00:01:59;11.77;;;7.25;;
75912;SDS011;64592;52.168;21.040;2023-05-10T00:07:01;10.23;;;6.10;;
75912;SDS011;64592;52.168;21.040;2023-05-10T00:12:02;10.52;;;6.32;;
75912;SDS011;64592;52.168;21.040;2023-05-10T00:17:06;9.60;;;6.07;;
75912;SDS011;64592;52.168;21.040;2023-05-10T00:22:09;12.88;;;6.32;;
75912;SDS011;64592;52.168;21.040;2023-05-10T00:27:11;9.38;;;5.85;;
75912;SDS011;64592;52.168;21.040;2023-05-10T00:32:14;16.33;;;6.13;;
75912;SDS011;64592;52.168;21.040;2023-05-10T00:37:16;10.85;;;5.85;;
75912;SDS011;64592;52.168;21.040;2023-05-10T00:42:18;8.52;;;5.32;;
75912;SDS011;64592;52.168;21.040;2023-05-10T00:47:24;11.88;;;6.25;;
75912;SDS011;64592;52.168;21.040;2023-05-10T00:52:26;8.43;;;5.68;;
75912;SDS011;64592;52.168;21.040;2023-05-10T00:57:28;11.80;;;6.18;;
75912;SDS011;64592;52.168;21.040;2023-05-10T01:02:31;10.25;;;5.43;;
75912;SDS011;64592;52.168;21.040;2023-05-10T01:07:34;9.07;;;4.80;;
75912;SDS011;64592;52.168;21.040;2023-05-10T01:12:37;7.68;;;5.40;;
75912;SDS011;64592;52.168;21.040;2023-05-10T01:17:44;11.00;;;5.75;;
75912;SDS011;64592;52.168;21.040;2023-05-10T01:33:55;10.15;;;6.22;;
75912;SDS011;64592;52.168;21.040;2023-05-10T01:39:01;9.25;;;4.78;;
75912;SDS011;64592;52.168;21.040;2023-05-10T01:44:12;9.43;;;5.07;;
75912;SDS011;64592;52.168;21.040;2023-05-10T01:49:21;10.13;;;5.00;;
75912;SDS011;64592;52.168;21.040;2023-05-10T01:54:27;17.77;;;4.63;;
75912;SDS011;64592;52.168;21.040;2023-05-10T01:59:30;5.55;;;4.43;;
75912;SDS011;64592;52.168;21.040;2023-05-10T02:04:40;7.97;;;5.18;;
75912;SDS011;64592;52.168;21.040;2023-05-10T02:09:44;9.23;;;4.78;;
75912;SDS011;64592;52.168;21.040;2023-05-10T02:14:47;8.07;;;4.63;;
75912;SDS011;64592;52.168;21.040;2023-05-10T02:19:54;8.27;;;4.53;;
75912;SDS011;64592;52.168;21.040;2023-05-10T02:24:58;6.30;;;4.25;;
75912;SDS011;64592;52.168;21.040;2023-05-10T02:30:02;6.10;;;4.55;;
75912;SDS011;64592;52.168;21.040;2023-05-10T02:35:07;6.82;;;4.40;;
75912;SDS011;64592;52.168;21.040;2023-05-10T02:40:10;7.97;;;4.68;;
75912;SDS011;64592;52.168;21.040;2023-05-10T02:45:15;8.27;;;4.25;;
75912;SDS011;64592;52.168;21.040;2023-05-10T02:50:23;8.63;;;4.03;;
75912;SDS011;64592;52.168;21.040;2023-05-10T02:55:31;7.68;;;4.95;;
75912;SDS011;64592;52.168;21.040;2023-05-10T03:00:34;7.43;;;4.82;;
75912;SDS011;64592;52.168;21.040;2023-05-10T03:05:38;9.88;;;5.50;;
75912;SDS011;64592;52.168;21.040;2023-05-10T03:10:41;7.88;;;4.80;;
75912;SDS011;64592;52.168;21.040;2023-05-10T03:15:55;9.43;;;5.32;;
75912;SDS011;64592;52.168;21.040;2023-05-10T03:21:03;9.77;;;4.80;;
75912;SDS011;64592;52.168;21.040;2023-05-10T03:26:11;7.22;;;4.18;;
75912;SDS011;64592;52.168;21.040;2023-05-10T03:31:19;8.18;;;4.93;;
75912;SDS011;64592;52.168;21.040;2023-05-10T03:36:22;6.90;;;4.38;;
75912;SDS011;64592;52.168;21.040;2023-05-10T03:41:24;6.00;;;4.22;;
75912;SDS011;64592;52.168;21.040;2023-05-10T03:46:27;6.93;;;4.10;;
75912;SDS011;64592;52.168;21.040;2023-05-10T03:51:30;10.18;;;4.45;;
75912;SDS011;64592;52.168;21.040;2023-05-10T03:56:32;5.53;;;4.50;;
75912;SDS011;64592;52.168;21.040;2023-05-10T04:01:34;8.18;;;4.20;;
75912;SDS011;64592;52.168;21.040;2023-05-10T04:06:37;8.10;;;4.65;;
75912;SDS011;64592;52.168;21.040;2023-05-10T04:11:39;6.60;;;4.40;;
75912;SDS011;64592;52.168;21.040;2023-05-10T04:16:41;7.57;;;3.95;;
75912;SDS011;64592;52.168;21.040;2023-05-10T04:21:44;9.15;;;4.68;;
75912;SDS011;64592;52.168;21.040;2023-05-10T04:26:46;8.73;;;4.75;;
75912;SDS011;64592;52.168;21.040;2023-05-10T04:31:49;9.73;;;3.97;;
75912;SDS011;64592;52.168;21.040;2023-05-10T04:36:52;6.80;;;4.47;;
75912;SDS011;64592;52.168;21.040;2023-05-10T04:41:55;6.25;;;4.15;;
75912;SDS011;64592;52.168;21.040;2023-05-10T04:46:57;8.90;;;3.65;;
75912;SDS011;64592;52.168;21.040;2023-05-10T04:52:03;9.52;;;4.03;;
75912;SDS011;64592;52.168;21.040;2023-05-10T04:57:05;7.55;;;3.83;;
75912;SDS011;64592;52.168;21.040;2023-05-10T05:02:09;7.18;;;4.60;;
75912;SDS011;64592;52.168;21.040;2023-05-10T05:07:13;7.30;;;4.55;;
75912;SDS011;64592;52.168;21.040;2023-05-10T05:12:15;10.65;;;3.90;;
75912;SDS011;64592;52.168;21.040;2023-05-10T05:17:17;9.10;;;4.20;;
75912;SDS011;64592;52.168;21.040;2023-05-10T05:22:21;7.25;;;4.50;;
75912;SDS011;64592;52.168;21.040;2023-05-10T05:27:27;9.00;;;4.38;;
75912;SDS011;64592;52.168;21.040;2023-05-10T05:32:29;7.00;;;4.53;;
75912;SDS011;64592;52.168;21.040;2023-05-10T05:37:33;9.38;;;4.13;;
75912;SDS011;64592;52.168;21.040;2023-05-10T05:42:35;5.90;;;3.88;;
75912;SDS011;64592;52.168;21.040;2023-05-10T05:52:48;6.88;;;3.70;;
75912;SDS011;64592;52.168;21.040;2023-05-10T05:57:51;7.45;;;3.92;;
75912;SDS011;64592;52.168;21.040;2023-05-10T06:02:52;9.05;;;4.63;;
75912;SDS011;64592;52.168;21.040;2023-05-10T06:07:56;7.75;;;4.35;;
75912;SDS011;64592;52.168;21.040;2023-05-10T06:13:01;9.32;;;4.95;;
75912;SDS011;64592;52.168;21.040;2023-05-10T06:18:02;10.98;;;5.00;;
75912;SDS011;64592;52.168;21.040;2023-05-10T06:23:08;8.65;;;4.22;;
75912;SDS011;64592;52.168;21.040;2023-05-10T06:28:11;5.55;;;3.90;;
75912;SDS011;64592;52.168;21.040;2023-05-10T06:33:13;6.35;;;3.47;;
75912;SDS011;64592;52.168;21.040;2023-05-10T06:38:24;8.00;;;3.70;;
75912;SDS011;64592;52.168;21.040;2023-05-10T06:43:27;6.90;;;3.30;;
75912;SDS011;64592;52.168;21.040;2023-05-10T06:48:29;7.68;;;3.92;;
75912;SDS011;64592;52.168;21.040;2023-05-10T06:53:33;5.55;;;3.50;;
75912;SDS011;64592;52.168;21.040;2023-05-10T06:58:35;4.20;;;3.10;;
75912;SDS011;64592;52.168;21.040;2023-05-10T07:03:38;5.97;;;3.08;;
75912;SDS011;64592;52.168;21.040;2023-05-10T07:08:43;5.13;;;2.97;;
75912;SDS011;64592;52.168;21.040;2023-05-10T07:13:45;8.73;;;2.92;;
75912;SDS011;64592;52.168;21.040;2023-05-10T07:18:47;4.35;;;2.63;;
75912;SDS011;64592;52.168;21.040;2023-05-10T07:23:51;5.00;;;2.78;;
75912;SDS011;64592;52.168;21.040;2023-05-10T07:28:55;4.55;;;2.47;;
75912;SDS011;64592;52.168;21.040;2023-05-10T07:33:58;3.67;;;2.53;;
75912;SDS011;64592;52.168;21.040;2023-05-10T07:39:02;5.43;;;2.40;;
75912;SDS011;64592;52.168;21.040;2023-05-10T07:44:05;3.33;;;2.22;;
75912;SDS011;64592;52.168;21.040;2023-05-10T07:49:07;6.93;;;1.98;;
75912;SDS011;64592;52.168;21.040;2023-05-10T07:54:11;2.78;;;1.90;;
75912;SDS011;64592;52.168;21.040;2023-05-10T07:59:14;3.15;;;2.15;;
75912;SDS011;64592;52.168;21.040;2023-05-10T08:04:17;5.45;;;2.70;;
75912;SDS011;64592;52.168;21.040;2023-05-10T08:09:22;5.63;;;2.40;;
75912;SDS011;64592;52.168;21.040;2023-05-10T08:14:24;4.38;;;2.35;;
75912;SDS011;64592;52.168;21.040;2023-05-10T08:19:25;5.28;;;2.60;;
75912;SDS011;64592;52.168;21.040;2023-05-10T08:24:29;4.38;;;2.80;;
75912;SDS011;64592;52.168;21.040;2023-05-10T08:29:30;5.18;;;2.40;;
75912;SDS011;64592;52.168;21.040;2023-05-10T08:34:33;4.05;;;2.20;;
75912;SDS011;64592;52.168;21.040;2023-05-10T08:39:36;3.92;;;2.53;;
75912;SDS011;64592;52.168;21.040;2023-05-10T08:44:38;6.82;;;2.58;;
75912;SDS011;64592;52.168;21.040;2023-05-10T08:49:40;4.00;;;2.20;;
75912;SDS011;64592;52.168;21.040;2023-05-10T08:54:46;4.53;;;2.47;;
75912;SDS011;64592;52.168;21.040;2023-05-10T08:59:48;4.53;;;2.42;;
75912;SDS011;64592;52.168;21.040;2023-05-10T09:04:52;4.25;;;2.40;;
75912;SDS011;64592;52.168;21.040;2023-05-10T09:09:55;9.25;;;2.45;;
75912;SDS011;64592;52.168;21.040;2023-05-10T09:15:02;4.03;;;2.67;;
75912;SDS011;64592;52.168;21.040;2023-05-10T09:20:10;3.80;;;2.42;;
75912;SDS011;64592;52.168;21.040;2023-05-10T09:25:18;6.43;;;3.30;;
75912;SDS011;64592;52.168;21.040;2023-05-10T09:30:24;3.40;;;2.40;;
75912;SDS011;64592;52.168;21.040;2023-05-10T09:35:27;4.85;;;2.42;;
75912;SDS011;64592;52.168;21.040;2023-05-10T09:40:35;4.25;;;2.30;;
75912;SDS011;64592;52.168;21.040;2023-05-10T09:45:38;4.60;;;2.17;;
75912;SDS011;64592;52.168;21.040;2023-05-10T09:55:45;3.47;;;2.20;;
75912;SDS011;64592;52.168;21.040;2023-05-10T10:00:52;4.68;;;2.72;;
75912;SDS011;64592;52.168;21.040;2023-05-10T10:05:55;3.50;;;2.17;;
75912;SDS011;64592;52.168;21.040;2023-05-10T10:11:06;6.38;;;2.60;;
75912;SDS011;64592;52.168;21.040;2023-05-10T10:16:08;5.18;;;2.85;;
75912;SDS011;64592;52.168;21.040;2023-05-10T10:21:12;5.82;;;2.33;;
75912;SDS011;64592;52.168;21.040;2023-05-10T10:26:17;7.18;;;2.65;;
75912;SDS011;64592;52.168;21.040;2023-05-10T10:31:23;4.63;;;2.67;;
75912;SDS011;64592;52.168;21.040;2023-05-10T10:36:39;4.53;;;2.55;;
75912;SDS011;64592;52.168;21.040;2023-05-10T10:41:50;3.95;;;2.40;;
75912;SDS011;64592;52.168;21.040;2023-05-10T10:47:00;3.65;;;2.45;;
75912;SDS011;64592;52.168;21.040;2023-05-10T10:52:17;6.90;;;2.63;;
75912;SDS011;64592;52.168;21.040;2023-05-10T10:57:24;4.72;;;2.47;;
75912;SDS011;64592;52.168;21.040;2023-05-10T11:02:34;3.60;;;2.22;;
75912;SDS011;64592;52.168;21.040;2023-05-10T11:07:52;4.18;;;2.53;;
75912;SDS011;64592;52.168;21.040;2023-05-10T11:13:00;4.55;;;2.47;;
75912;SDS011;64592;52.168;21.040;2023-05-10T11:18:18;4.32;;;2.38;;
75912;SDS011;64592;52.168;21.040;2023-05-10T11:23:22;3.88;;;2.28;;
75912;SDS011;64592;52.168;21.040;2023-05-10T11:28:25;4.90;;;2.90;;
75912;SDS011;64592;52.168;21.040;2023-05-10T11:33:28;5.85;;;2.65;;
75912;SDS011;64592;52.168;21.040;2023-05-10T11:38:30;6.95;;;2.85;;
75912;SDS011;64592;52.168;21.040;2023-05-10T11:43:35;5.13;;;2.38;;
75912;SDS011;64592;52.168;21.040;2023-05-10T11:48:39;3.25;;;2.25;;
75912;SDS011;64592;52.168;21.040;2023-05-10T11:53:46;6.25;;;2.53;;
75912;SDS011;64592;52.168;21.040;2023-05-10T11:58:53;9.80;;;2.63;;
75912;SDS011;64592;52.168;21.040;2023-05-10T12:04:01;4.30;;;2.60;;
75912;SDS011;64592;52.168;21.040;2023-05-10T12:09:07;7.30;;;2.83;;
75912;SDS011;64592;52.168;21.040;2023-05-10T12:14:13;6.32;;;3.05;;
75912;SDS011;64592;52.168;21.040;2023-05-10T12:19:17;4.28;;;2.80;;
75912;SDS011;64592;52.168;21.040;2023-05-10T12:24:20;5.85;;;2.85;;
75912;SDS011;64592;52.168;21.040;2023-05-10T12:29:26;6.28;;;2.88;;
75912;SDS011;64592;52.168;21.040;2023-05-10T12:34:32;5.38;;;2.90;;
75912;SDS011;64592;52.168;21.040;2023-05-10T12:39:39;4.00;;;2.42;;
75912;SDS011;64592;52.168;21.040;2023-05-10T12:44:44;9.27;;;2.60;;
75912;SDS011;64592;52.168;21.040;2023-05-10T12:49:49;5.47;;;2.60;;
75912;SDS011;64592;52.168;21.040;2023-05-10T12:54:51;8.18;;;2.60;;
75912;SDS011;64592;52.168;21.040;2023-05-10T12:59:54;6.13;;;2.47;;
75912;SDS011;64592;52.168;21.040;2023-05-10T13:04:56;4.70;;;2.20;;
75912;SDS011;64592;52.168;21.040;2023-05-10T13:09:58;4.57;;;2.45;;
75912;SDS011;64592;52.168;21.040;2023-05-10T13:15:03;3.78;;;2.40;;
75912;SDS011;64592;52.168;21.040;2023-05-10T13:20:06;7.93;;;2.30;;
75912;SDS011;64592;52.168;21.040;2023-05-10T13:25:10;6.60;;;3.20;;
75912;SDS011;64592;52.168;21.040;2023-05-10T13:30:14;3.80;;;2.65;;
75912;SDS011;64592;52.168;21.040;2023-05-10T13:35:17;3.95;;;2.30;;
75912;SDS011;64592;52.168;21.040;2023-05-10T13:40:20;3.70;;;2.20;;
75912;SDS011;64592;52.168;21.040;2023-05-10T13:45:24;4.55;;;2.17;;
75912;SDS011;64592;52.168;21.040;2023-05-10T13:50:27;4.07;;;2.53;;
75912;SDS011;64592;52.168;21.040;2023-05-10T13:55:31;10.80;;;3.05;;
75912;SDS011;64592;52.168;21.040;2023-05-10T14:00:35;4.65;;;2.83;;
75912;SDS011;64592;52.168;21.040;2023-05-10T14:05:37;6.07;;;4.32;;
75912;SDS011;64592;52.168;21.040;2023-05-10T14:10:39;5.32;;;2.47;;
75912;SDS011;64592;52.168;21.040;2023-05-10T14:15:43;4.22;;;2.33;;
75912;SDS011;64592;52.168;21.040;2023-05-10T14:20:47;3.90;;;2.28;;
75912;SDS011;64592;52.168;21.040;2023-05-10T14:25:53;5.57;;;2.63;;
75912;SDS011;64592;52.168;21.040;2023-05-10T14:30:56;4.32;;;2.72;;
75912;SDS011;64592;52.168;21.040;2023-05-10T14:35:59;3.90;;;2.42;;
75912;SDS011;64592;52.168;21.040;2023-05-10T14:41:03;6.18;;;2.47;;
75912;SDS011;64592;52.168;21.040;2023-05-10T14:46:08;5.05;;;2.47;;
75912;SDS011;64592;52.168;21.040;2023-05-10T14:51:10;3.58;;;2.50;;
75912;SDS011;64592;52.168;21.040;2023-05-10T14:56:15;4.15;;;2.22;;
75912;SDS011;64592;52.168;21.040;2023-05-10T15:01:22;4.38;;;2.35;;
75912;SDS011;64592;52.168;21.040;2023-05-10T15:06:30;4.28;;;2.65;;
75912;SDS011;64592;52.168;21.040;2023-05-10T15:11:33;4.28;;;2.60;;
75912;SDS011;64592;52.168;21.040;2023-05-10T15:16:36;5.97;;;2.50;;
75912;SDS011;64592;52.168;21.040;2023-05-10T15:21:38;3.67;;;2.55;;
75912;SDS011;64592;52.168;21.040;2023-05-10T15:26:42;4.75;;;2.50;;
75912;SDS011;64592;52.168;21.040;2023-05-10T15:31:46;3.78;;;2.50;;
75912;SDS011;64592;52.168;21.040;2023-05-10T15:36:49;5.10;;;2.13;;
75912;SDS011;64592;52.168;21.040;2023-05-10T15:41:54;6.05;;;2.42;;
75912;SDS011;64592;52.168;21.040;2023-05-10T15:47:03;5.93;;;2.33;;
75912;SDS011;64592;52.168;21.040;2023-05-10T15:52:14;3.70;;;2.38;;
75912;SDS011;64592;52.168;21.040;2023-05-10T16:02:26;2.70;;;2.33;;
75912;SDS011;64592;52.168;21.040;2023-05-10T16:07:30;4.55;;;2.30;;
75912;SDS011;64592;52.168;21.040;2023-05-10T16:12:34;5.40;;;2.35;;
75912;SDS011;64592;52.168;21.040;2023-05-10T16:17:46;4.40;;;2.13;;
75912;SDS011;64592;52.168;21.040;2023-05-10T16:22:50;3.42;;;2.30;;
75912;SDS011;64592;52.168;21.040;2023-05-10T16:27:51;6.93;;;2.60;;
75912;SDS011;64592;52.168;21.040;2023-05-10T16:32:55;3.88;;;2.40;;
75912;SDS011;64592;52.168;21.040;2023-05-10T16:37:59;5.22;;;2.97;;
75912;SDS011;64592;52.168;21.040;2023-05-10T16:43:01;4.10;;;2.60;;
75912;SDS011;64592;52.168;21.040;2023-05-10T16:59:07;4.38;;;2.38;;
75912;SDS011;64592;52.168;21.040;2023-05-10T17:04:23;3.33;;;2.28;;
75912;SDS011;64592;52.168;21.040;2023-05-10T17:15:18;3.47;;;2.42;;
75912;SDS011;64592;52.168;21.040;2023-05-10T17:20:20;4.15;;;2.10;;
75912;SDS011;64592;52.168;21.040;2023-05-10T17:25:22;5.30;;;2.13;;
75912;SDS011;64592;52.168;21.040;2023-05-10T17:30:26;4.03;;;2.53;;
75912;SDS011;64592;52.168;21.040;2023-05-10T17:35:33;4.25;;;2.47;;
75912;SDS011;64592;52.168;21.040;2023-05-10T17:40:39;4.40;;;2.45;;
75912;SDS011;64592;52.168;21.040;2023-05-10T17:45:45;2.78;;;2.30;;
75912;SDS011;64592;52.168;21.040;2023-05-10T17:50:49;3.70;;;2.25;;
75912;SDS011;64592;52.168;21.040;2023-05-10T17:55:52;4.25;;;2.05;;
75912;SDS011;64592;52.168;21.040;2023-05-10T18:00:58;4.72;;;2.60;;
75912;SDS011;64592;52.168;21.040;2023-05-10T18:06:00;3.65;;;2.30;;
75912;SDS011;64592;52.168;21.040;2023-05-10T18:11:07;7.72;;;2.40;;
75912;SDS011;64592;52.168;21.040;2023-05-10T18:16:14;6.13;;;2.40;;
75912;SDS011;64592;52.168;21.040;2023-05-10T18:21:15;6.70;;;3.25;;
75912;SDS011;64592;52.168;21.040;2023-05-10T18:26:17;7.63;;;3.47;;
75912;SDS011;64592;52.168;21.040;2023-05-10T18:31:23;6.85;;;3.67;;
75912;SDS011;64592;52.168;21.040;2023-05-10T18:36:25;5.07;;;3.25;;
75912;SDS011;64592;52.168;21.040;2023-05-10T18:41:29;5.63;;;2.95;;
75912;SDS011;64592;52.168;21.040;2023-05-10T18:46:32;7.78;;;2.90;;
75912;SDS011;64592;52.168;21.040;2023-05-10T18:51:35;4.60;;;3.35;;
75912;SDS011;64592;52.168;21.040;2023-05-10T18:56:37;5.80;;;3.10;;
75912;SDS011;64592;52.168;21.040;2023-05-10T19:06:48;6.07;;;3.50;;
75912;SDS011;64592;52.168;21.040;2023-05-10T19:11:57;6.72;;;3.30;;
75912;SDS011;64592;52.168;21.040;2023-05-10T19:17:03;4.93;;;3.17;;
75912;SDS011;64592;52.168;21.040;2023-05-10T19:22:05;5.65;;;3.50;;
75912;SDS011;64592;52.168;21.040;2023-05-10T19:27:10;6.05;;;3.72;;
75912;SDS011;64592;52.168;21.040;2023-05-10T19:32:14;7.75;;;4.80;;
75912;SDS011;64592;52.168;21.040;2023-05-10T19:37:16;13.15;;;4.47;;
75912;SDS011;64592;52.168;21.040;2023-05-10T19:42:18;7.28;;;4.13;;
75912;SDS011;64592;52.168;21.040;2023-05-10T19:47:21;5.55;;;4.10;;
75912;SDS011;64592;52.168;21.040;2023-05-10T19:52:23;7.82;;;4.00;;
75912;SDS011;64592;52.168;21.040;2023-05-10T19:57:25;8.25;;;4.13;;
75912;SDS011;64592;52.168;21.040;2023-05-10T20:02:30;14.75;;;5.78;;
75912;SDS011;64592;52.168;21.040;2023-05-10T20:07:32;6.32;;;3.45;;
75912;SDS011;64592;52.168;21.040;2023-05-10T20:12:33;5.20;;;3.50;;
75912;SDS011;64592;52.168;21.040;2023-05-10T20:17:36;7.60;;;3.90;;
75912;SDS011;64592;52.168;21.040;2023-05-10T20:22:44;5.68;;;4.00;;
75912;SDS011;64592;52.168;21.040;2023-05-10T20:27:46;7.82;;;5.28;;
75912;SDS011;64592;52.168;21.040;2023-05-10T20:32:51;7.53;;;4.45;;
75912;SDS011;64592;52.168;21.040;2023-05-10T20:37:53;8.23;;;4.50;;
75912;SDS011;64592;52.168;21.040;2023-05-10T20:42:55;7.93;;;4.28;;
75912;SDS011;64592;52.168;21.040;2023-05-10T20:47:59;9.50;;;4.55;;
75912;SDS011;64592;52.168;21.040;2023-05-10T20:53:01;6.80;;;4.55;;
75912;SDS011;64592;52.168;21.040;2023-05-10T20:58:02;7.18;;;5.05;;
75912;SDS011;64592;52.168;21.040;2023-05-10T21:03:08;8.05;;;4.88;;
75912;SDS011;64592;52.168;21.040;2023-05-10T21:08:11;7.57;;;5.13;;
75912;SDS011;64592;52.168;21.040;2023-05-10T21:13:13;7.95;;;4.57;;
75912;SDS011;64592;52.168;21.040;2023-05-10T21:18:22;10.50;;;4.70;;
75912;SDS011;64592;52.168;21.040;2023-05-10T21:23:24;8.57;;;4.75;;
75912;SDS011;64592;52.168;21.040;2023-05-10T21:28:26;9.55;;;4.78;;
75912;SDS011;64592;52.168;21.040;2023-05-10T21:33:29;6.95;;;4.63;;
75912;SDS011;64592;52.168;21.040;2023-05-10T21:38:31;7.93;;;4.63;;
75912;SDS011;64592;52.168;21.040;2023-05-10T21:43:35;15.32;;;4.65;;
75912;SDS011;64592;52.168;21.040;2023-05-10T21:48:38;7.20;;;4.25;;
75912;SDS011;64592;52.168;21.040;2023-05-10T21:53:40;7.53;;;4.57;;
75912;SDS011;64592;52.168;21.040;2023-05-10T21:58:41;7.72;;;4.78;;
75912;SDS011;64592;52.168;21.040;2023-05-10T22:03:44;8.55;;;4.85;;
75912;SDS011;64592;52.168;21.040;2023-05-10T22:08:46;8.23;;;4.25;;
75912;SDS011;64592;52.168;21.040;2023-05-10T22:13:49;6.60;;;4.25;;
75912;SDS011;64592;52.168;21.040;2023-05-10T22:18:54;7.13;;;4.35;;
75912;SDS011;64592;52.168;21.040;2023-05-10T22:23:57;8.52;;;4.18;;
75912;SDS011;64592;52.168;21.040;2023-05-10T22:28:58;6.55;;;4.25;;
75912;SDS011;64592;52.168;21.040;2023-05-10T22:34:02;6.70;;;4.38;;
75912;SDS011;64592;52.168;21.040;2023-05-10T22:39:04;6.35;;;4.03;;
75912;SDS011;64592;52.168;21.040;2023-05-10T22:44:06;7.50;;;4.18;;
75912;SDS011;64592;52.168;21.040;2023-05-10T22:49:14;8.88;;;4.32;;
75912;SDS011;64592;52.168;21.040;2023-05-10T22:54:16;7.43;;;4.43;;
75912;SDS011;64592;52.168;21.040;2023-05-10T22:59:18;6.45;;;3.95;;
75912;SDS011;64592;52.168;21.040;2023-05-10T23:04:22;7.15;;;4.15;;
75912;SDS011;64592;52.168;21.040;2023-05-10T23:09:23;6.03;;;3.78;;
75912;SDS011;64592;52.168;21.040;2023-05-10T23:14:25;5.50;;;3.75;;
75912;SDS011;64592;52.168;21.040;2023-05-10T23:19:33;7.63;;;4.20;;
75912;SDS011;64592;52.168;21.040;2023-05-10T23:24:35;6.57;;;3.83;;
75912;SDS011;64592;52.168;21.040;2023-05-10T23:29:38;7.45;;;3.95;;
75912;SDS011;64592;52.168;21.040;2023-05-10T23:34:41;6.57;;;3.97;;
75912;SDS011;64592;52.168;21.040;2023-05-10T23:39:43;6.82;;;4.40;;
75912;SDS011;64592;52.168;21.040;2023-05-10T23:44:46;5.97;;;3.72;;
75912;SDS011;64592;52.168;21.040;2023-05-10T23:49:49;6.85;;;3.92;;
75912;SDS011;64592;52.168;21.040;2023-05-10T23:54:54;6.45;;;4.15;;
75912;SDS011;64592;52.168;21.040;2023-05-10T23:59:57;5.97;;;4.25;;
